Time;durP1;ratioP1;P1;durP2;ratioP2;P2;SDS_P1;SDS_P2;PMS_P1;PMS_P2;Temp;Humidity;BMP_temperature;BMP_pressure;BME280_temperature;BME280_humidity;BME280_pressure;Samples;Min_cycle;Max_cycle;Signal;HPM_P1;HPM_P2
2021/09/17 00:00:09;;;;;;;7.72;4.53;;;13.30;99.90;;;;;;5029213;28;20053;-57
2021/09/17 00:02:35;;;;;;;5.32;4.10;;;13.30;99.90;;;;;;5025518;28;20049;-57
2021/09/17 00:05:01;;;;;;;10.70;5.10;;;13.30;99.90;;;;;;5028890;28;20404;-57
2021/09/17 00:07:27;;;;;;;8.63;4.55;;;13.30;99.90;;;;;;4993111;28;20181;-58
2021/09/17 00:09:52;;;;;;;7.88;4.72;;;13.20;99.90;;;;;;5025234;28;20035;-57
2021/09/17 00:12:18;;;;;;;6.72;4.93;;;13.20;99.90;;;;;;5010500;28;20032;-57
2021/09/17 00:14:44;;;;;;;7.78;5.45;;;13.20;99.90;;;;;;5028900;28;20037;-58
2021/09/17 00:17:10;;;;;;;12.93;6.18;;;13.10;99.90;;;;;;5027401;28;20028;-59
2021/09/17 00:19:35;;;;;;;10.13;5.53;;;13.10;99.90;;;;;;5028875;28;20412;-57
2021/09/17 00:22:02;;;;;;;11.35;6.15;;;13.10;99.90;;;;;;5027881;28;20045;-56
2021/09/17 00:24:27;;;;;;;8.32;5.70;;;13.10;99.90;;;;;;5011793;28;20028;-59
2021/09/17 00:26:53;;;;;;;7.60;6.20;;;13.00;99.90;;;;;;5023804;28;20021;-55
2021/09/17 00:29:18;;;;;;;9.38;5.93;;;13.00;99.90;;;;;;5026892;28;20042;-56
2021/09/17 00:31:44;;;;;;;9.10;6.35;;;12.90;99.90;;;;;;5027708;28;20036;-55
2021/09/17 00:34:09;;;;;;;8.50;5.65;;;12.80;99.90;;;;;;5028652;28;20013;-57
2021/09/17 00:36:35;;;;;;;11.88;6.05;;;12.80;99.90;;;;;;5028218;28;20388;-58
2021/09/17 00:39:02;;;;;;;8.32;5.22;;;12.80;99.90;;;;;;5016182;28;20160;-57
2021/09/17 00:41:27;;;;;;;8.75;5.90;;;12.70;99.90;;;;;;5024974;28;20020;-55
2021/09/17 00:43:53;;;;;;;7.85;5.03;;;12.60;99.90;;;;;;5024937;28;20033;-55
2021/09/17 00:46:19;;;;;;;10.98;5.97;;;12.60;99.90;;;;;;5026704;28;20056;-56
2021/09/17 00:48:44;;;;;;;8.85;5.07;;;12.50;99.90;;;;;;5041454;28;20128;-57
2021/09/17 00:51:10;;;;;;;10.80;5.82;;;12.50;99.90;;;;;;5024094;28;20080;-55
2021/09/17 00:53:36;;;;;;;9.65;5.35;;;12.40;99.90;;;;;;5025370;28;20079;-58
2021/09/17 00:56:03;;;;;;;14.50;5.57;;;12.40;99.90;;;;;;5026870;28;20484;-58
2021/09/17 00:58:29;;;;;;;7.20;5.30;;;12.40;99.90;;;;;;5026929;28;20044;-57
2021/09/17 01:00:55;;;;;;;9.25;4.63;;;12.30;99.90;;;;;;5023932;28;20468;-56
2021/09/17 01:03:20;;;;;;;20.20;5.50;;;12.30;99.90;;;;;;5027202;28;20030;-55
2021/09/17 01:05:46;;;;;;;8.15;5.00;;;12.30;99.90;;;;;;5027721;28;20044;-57
2021/09/17 01:08:12;;;;;;;9.68;5.50;;;12.30;99.90;;;;;;5024898;28;20049;-56
2021/09/17 01:10:37;;;;;;;10.50;6.22;;;12.40;99.90;;;;;;5027984;28;20104;-56
2021/09/17 01:13:03;;;;;;;6.00;5.07;;;12.40;99.90;;;;;;5027682;28;20030;-58
2021/09/17 01:15:29;;;;;;;8.95;5.20;;;12.40;99.90;;;;;;5026598;28;20057;-58
2021/09/17 01:17:55;;;;;;;7.43;4.75;;;12.40;99.90;;;;;;5021792;28;20049;-57
2021/09/17 01:20:21;;;;;;;10.13;4.93;;;12.50;99.90;;;;;;5027655;28;20134;-59
2021/09/17 01:22:49;;;;;;;7.45;5.60;;;12.50;99.90;;;;;;5027320;28;20034;-59
2021/09/17 01:25:20;;;;;;;9.52;5.40;;;12.50;99.90;;;;;;5024047;28;20033;-57
2021/09/17 01:27:47;;;;;;;7.45;5.97;;;12.50;99.90;;;;;;5029375;28;20025;-58
2021/09/17 01:30:15;;;;;;;10.60;5.65;;;12.60;99.90;;;;;;5028294;28;20030;-59
2021/09/17 01:32:43;;;;;;;10.15;5.20;;;12.60;99.90;;;;;;5024672;28;20443;-59
2021/09/17 01:35:15;;;;;;;10.48;4.60;;;12.70;99.90;;;;;;5031137;28;20100;-58
2021/09/17 01:37:41;;;;;;;10.00;5.10;;;12.70;99.90;;;;;;5010778;28;20404;-56
2021/09/17 01:40:07;;;;;;;13.95;5.60;;;12.70;99.90;;;;;;5029512;28;20025;-57
2021/09/17 01:42:33;;;;;;;8.45;5.57;;;12.70;99.90;;;;;;5030077;28;20041;-59
2021/09/17 01:44:59;;;;;;;9.95;6.22;;;12.70;99.90;;;;;;5025744;28;20030;-58
2021/09/17 01:47:24;;;;;;;8.55;6.35;;;12.80;99.90;;;;;;5028205;28;20032;-58
2021/09/17 01:49:50;;;;;;;7.82;6.60;;;12.80;99.90;;;;;;5029197;28;20113;-57
2021/09/17 01:52:15;;;;;;;8.88;6.47;;;12.70;99.90;;;;;;5026979;28;20151;-57
2021/09/17 01:54:42;;;;;;;16.75;9.15;;;12.70;99.90;;;;;;5010995;28;20018;-57
2021/09/17 01:57:08;;;;;;;15.35;7.88;;;12.70;99.90;;;;;;5027767;28;20557;-57
2021/09/17 01:59:34;;;;;;;12.95;8.75;;;12.70;99.90;;;;;;5027699;28;20034;-57
2021/09/17 02:01:59;;;;;;;16.65;9.20;;;12.70;99.90;;;;;;5029319;28;20052;-58
2021/09/17 02:04:25;;;;;;;20.98;10.82;;;12.80;99.90;;;;;;5033167;28;20489;-57
2021/09/17 02:06:51;;;;;;;22.27;11.65;;;12.80;99.90;;;;;;5031860;28;20048;-59
2021/09/17 02:09:16;;;;;;;18.35;12.90;;;12.80;99.90;;;;;;5039656;28;20013;-60
2021/09/17 02:11:42;;;;;;;23.70;14.45;;;12.80;99.90;;;;;;5031432;28;20484;-59
2021/09/17 02:14:08;;;;;;;19.02;12.02;;;12.80;99.90;;;;;;5033475;28;20714;-57
2021/09/17 02:16:34;;;;;;;18.52;12.45;;;12.80;99.90;;;;;;5028282;28;20041;-58
2021/09/17 02:18:59;;;;;;;18.58;12.15;;;12.80;99.90;;;;;;5041001;28;20112;-59
2021/09/17 02:21:25;;;;;;;14.98;10.40;;;12.80;99.90;;;;;;5023889;28;20485;-59
2021/09/17 02:23:51;;;;;;;18.75;11.38;;;12.80;99.90;;;;;;5033560;28;20454;-58
2021/09/17 02:26:18;;;;;;;23.92;13.93;;;12.80;99.90;;;;;;5024168;28;20053;-58
2021/09/17 02:28:43;;;;;;;18.77;12.52;;;12.90;99.90;;;;;;5031739;28;20044;-59
2021/09/17 02:31:09;;;;;;;18.85;11.25;;;12.80;99.90;;;;;;5027197;28;20021;-59
2021/09/17 02:33:35;;;;;;;21.63;11.70;;;12.90;99.90;;;;;;5032199;28;20113;-59
2021/09/17 02:36:01;;;;;;;16.50;10.40;;;12.90;99.90;;;;;;5030159;28;20108;-59
2021/09/17 02:38:26;;;;;;;15.10;9.38;;;12.90;99.90;;;;;;5014587;28;20072;-59
2021/09/17 02:40:53;;;;;;;14.38;10.40;;;12.90;99.90;;;;;;5028854;28;20034;-58
2021/09/17 02:43:20;;;;;;;18.33;11.55;;;12.90;99.90;;;;;;5034670;28;20028;-59
2021/09/17 02:45:46;;;;;;;11.63;9.27;;;12.90;99.90;;;;;;5038413;28;20033;-59
2021/09/17 02:48:11;;;;;;;18.65;10.43;;;12.90;99.90;;;;;;5036583;28;20040;-57
2021/09/17 02:50:37;;;;;;;18.45;9.93;;;12.90;99.90;;;;;;5031884;28;20082;-58
2021/09/17 02:53:05;;;;;;;23.65;10.07;;;12.90;99.90;;;;;;5032130;28;20041;-59
2021/09/17 02:55:30;;;;;;;11.90;8.77;;;12.90;99.90;;;;;;5031447;28;20032;-57
2021/09/17 02:57:56;;;;;;;11.82;6.53;;;12.90;99.90;;;;;;5033524;28;20037;-58
2021/09/17 03:00:21;;;;;;;10.07;5.82;;;12.90;99.90;;;;;;5035658;28;20094;-58
2021/09/17 03:02:47;;;;;;;13.35;5.80;;;12.90;99.90;;;;;;5033025;28;20483;-57
2021/09/17 03:05:13;;;;;;;11.35;5.57;;;12.90;99.90;;;;;;5034815;28;20161;-58
2021/09/17 03:07:39;;;;;;;10.38;6.40;;;12.90;99.90;;;;;;5032450;28;20407;-59
2021/09/17 03:10:05;;;;;;;7.32;5.93;;;12.90;99.90;;;;;;5032737;28;20085;-59
2021/09/17 03:12:32;;;;;;;6.60;5.65;;;12.90;99.90;;;;;;5032841;28;20025;-55
2021/09/17 03:14:57;;;;;;;13.00;5.72;;;12.90;99.90;;;;;;5031992;28;20030;-55
2021/09/17 03:17:23;;;;;;;8.38;4.95;;;12.90;99.90;;;;;;5029459;28;20029;-58
2021/09/17 03:19:49;;;;;;;9.07;5.47;;;12.90;99.90;;;;;;5031519;28;20437;-56
2021/09/17 03:22:14;;;;;;;9.93;5.38;;;12.90;99.90;;;;;;5032318;28;20060;-58
2021/09/17 03:24:40;;;;;;;8.85;5.57;;;12.90;99.90;;;;;;5031379;28;20037;-57
2021/09/17 03:27:06;;;;;;;8.60;5.93;;;12.90;99.90;;;;;;5028970;28;20064;-55
2021/09/17 03:29:31;;;;;;;12.23;5.80;;;12.90;99.90;;;;;;5031619;28;20029;-58
2021/09/17 03:31:57;;;;;;;11.43;5.30;;;12.80;99.90;;;;;;5031165;28;20547;-57
2021/09/17 03:34:23;;;;;;;12.13;5.75;;;12.80;99.90;;;;;;5031381;28;20116;-54
2021/09/17 03:36:48;;;;;;;8.05;5.40;;;12.80;99.90;;;;;;5032049;28;20033;-55
2021/09/17 03:39:15;;;;;;;9.07;5.18;;;12.80;99.90;;;;;;5016428;28;20033;-57
2021/09/17 03:41:44;;;;;;;12.23;5.57;;;12.80;99.90;;;;;;5028641;28;20025;-57
2021/09/17 03:44:13;;;;;;;9.82;5.60;;;12.70;99.90;;;;;;5030663;28;20040;-57
2021/09/17 03:46:39;;;;;;;8.55;5.53;;;12.70;99.90;;;;;;5031744;28;20018;-59
2021/09/17 03:49:05;;;;;;;10.93;5.97;;;12.70;99.90;;;;;;5028499;28;20025;-57
2021/09/17 03:51:31;;;;;;;9.07;5.45;;;12.70;99.90;;;;;;5023455;28;20097;-56
2021/09/17 03:53:56;;;;;;;11.63;5.68;;;12.70;99.90;;;;;;5029797;28;20408;-58
2021/09/17 03:56:22;;;;;;;8.80;6.63;;;12.70;99.90;;;;;;5033507;28;20022;-55
2021/09/17 03:58:47;;;;;;;8.32;6.03;;;12.70;99.90;;;;;;5030662;28;20033;-59
2021/09/17 04:01:13;;;;;;;13.40;6.70;;;12.70;99.90;;;;;;5030120;28;20508;-58
2021/09/17 04:03:39;;;;;;;8.73;6.05;;;12.70;99.90;;;;;;5032261;28;20031;-58
2021/09/17 04:06:04;;;;;;;16.38;6.13;;;12.70;99.90;;;;;;5029086;28;20026;-57
2021/09/17 04:08:30;;;;;;;11.65;5.93;;;12.80;99.90;;;;;;5033528;28;20138;-55
2021/09/17 04:10:55;;;;;;;10.75;6.30;;;12.70;99.90;;;;;;5034392;28;20033;-59
2021/09/17 04:13:21;;;;;;;15.18;7.45;;;12.70;99.90;;;;;;5033738;28;20040;-59
2021/09/17 04:15:46;;;;;;;10.18;6.05;;;12.80;99.90;;;;;;5029367;28;20049;-56
2021/09/17 04:18:12;;;;;;;16.77;6.90;;;12.80;99.90;;;;;;5033706;28;20029;-58
2021/09/17 04:20:38;;;;;;;11.60;6.35;;;12.80;99.90;;;;;;5030051;28;20092;-57
2021/09/17 04:23:03;;;;;;;12.27;6.47;;;12.80;99.90;;;;;;5033898;28;20024;-58
2021/09/17 04:25:29;;;;;;;11.32;7.18;;;12.80;99.90;;;;;;5035187;28;20083;-56
2021/09/17 04:27:57;;;;;;;14.48;7.55;;;12.80;99.90;;;;;;5025639;28;20488;-58
2021/09/17 04:30:23;;;;;;;12.77;7.47;;;12.80;99.90;;;;;;5032809;28;20060;-57
2021/09/17 04:32:48;;;;;;;11.57;7.07;;;12.80;99.90;;;;;;5034366;28;20507;-57
2021/09/17 04:35:15;;;;;;;12.13;7.55;;;12.80;99.90;;;;;;5031182;28;20021;-55
2021/09/17 04:37:46;;;;;;;10.77;7.47;;;12.80;99.90;;;;;;5029444;28;20025;-58
2021/09/17 04:40:14;;;;;;;9.07;7.35;;;12.80;99.90;;;;;;5013593;28;20053;-58
2021/09/17 04:42:39;;;;;;;12.88;7.43;;;12.80;99.90;;;;;;5028075;28;20067;-58
2021/09/17 04:45:06;;;;;;;9.60;6.35;;;12.80;99.90;;;;;;5028442;28;20061;-58
2021/09/17 04:47:32;;;;;;;13.38;8.38;;;12.80;99.90;;;;;;5028626;28;20450;-59
2021/09/17 04:49:59;;;;;;;12.52;7.95;;;12.80;99.90;;;;;;5031848;28;20049;-57
2021/09/17 04:52:25;;;;;;;12.65;8.00;;;12.70;99.90;;;;;;5029336;28;20028;-57
2021/09/17 04:54:52;;;;;;;16.92;8.60;;;12.70;99.90;;;;;;5013557;28;20091;-57
2021/09/17 04:57:18;;;;;;;10.55;8.38;;;12.80;99.90;;;;;;5035095;28;20018;-58
2021/09/17 04:59:43;;;;;;;12.73;8.85;;;12.80;99.90;;;;;;5030314;28;20550;-56
2021/09/17 05:02:09;;;;;;;12.65;9.30;;;12.80;99.90;;;;;;5027556;28;20030;-56
2021/09/17 05:04:35;;;;;;;13.77;9.63;;;12.80;99.90;;;;;;5024759;28;20500;-56
2021/09/17 05:07:00;;;;;;;14.65;9.38;;;12.80;99.90;;;;;;5030608;28;20025;-59
2021/09/17 05:09:26;;;;;;;15.70;9.40;;;12.80;99.90;;;;;;5032665;28;20036;-55
2021/09/17 05:11:52;;;;;;;14.85;10.25;;;12.80;99.90;;;;;;5030184;28;20507;-59
2021/09/17 05:14:18;;;;;;;14.57;10.38;;;12.80;99.90;;;;;;5025919;28;20030;-57
2021/09/17 05:16:45;;;;;;;17.20;9.40;;;12.80;99.90;;;;;;5028532;28;20025;-57
2021/09/17 05:19:12;;;;;;;14.73;9.93;;;12.90;99.90;;;;;;5033468;28;20022;-57
2021/09/17 05:21:37;;;;;;;17.35;9.45;;;12.90;99.90;;;;;;5031116;28;20435;-56
2021/09/17 05:24:03;;;;;;;16.88;10.77;;;12.90;99.90;;;;;;5027986;28;20083;-59
2021/09/17 05:26:28;;;;;;;18.50;11.07;;;12.90;99.90;;;;;;5034688;28;20025;-54
2021/09/17 05:28:54;;;;;;;20.42;11.02;;;13.00;99.90;;;;;;5030385;28;20040;-57
2021/09/17 05:31:20;;;;;;;19.70;11.23;;;13.00;99.90;;;;;;5025776;28;20045;-56
2021/09/17 05:33:45;;;;;;;14.07;10.35;;;13.00;99.90;;;;;;5028866;28;20396;-57
2021/09/17 05:36:11;;;;;;;13.30;10.98;;;13.00;99.90;;;;;;5034435;28;20112;-59
2021/09/17 05:38:36;;;;;;;21.48;11.48;;;13.00;99.90;;;;;;5019206;28;20032;-57
2021/09/17 05:41:02;;;;;;;17.58;9.70;;;13.00;99.90;;;;;;5033774;28;20037;-59
2021/09/17 05:43:28;;;;;;;12.60;9.45;;;13.00;99.90;;;;;;5028388;28;20124;-55
2021/09/17 05:45:53;;;;;;;18.98;9.30;;;13.10;99.90;;;;;;5033046;28;20033;-57
2021/09/17 05:48:19;;;;;;;18.50;9.57;;;13.10;99.90;;;;;;5034283;28;20040;-58
2021/09/17 05:50:44;;;;;;;12.40;8.45;;;13.10;99.90;;;;;;5032371;28;20101;-55
2021/09/17 05:53:10;;;;;;;10.85;8.20;;;13.20;99.90;;;;;;5036799;28;20064;-58
2021/09/17 05:55:36;;;;;;;14.43;10.35;;;13.20;99.90;;;;;;5035110;28;20061;-58
2021/09/17 05:58:02;;;;;;;10.35;8.32;;;13.20;99.90;;;;;;5034101;28;20040;-58
2021/09/17 06:00:27;;;;;;;11.75;7.85;;;13.20;99.90;;;;;;5037652;28;20048;-55
2021/09/17 06:02:53;;;;;;;11.18;8.23;;;13.20;99.90;;;;;;5031388;28;20033;-56
2021/09/17 06:05:19;;;;;;;21.70;10.05;;;13.20;99.90;;;;;;5034068;28;20033;-58
2021/09/17 06:07:45;;;;;;;13.10;9.30;;;13.20;99.90;;;;;;5031957;28;20032;-58
2021/09/17 06:10:12;;;;;;;17.48;9.02;;;13.30;99.90;;;;;;5035964;28;20021;-59
2021/09/17 06:12:39;;;;;;;28.55;12.27;;;13.30;99.90;;;;;;5033291;28;20041;-58
2021/09/17 06:15:05;;;;;;;14.73;10.95;;;13.30;99.90;;;;;;5026547;28;20472;-55
2021/09/17 06:17:31;;;;;;;18.85;11.23;;;13.40;99.90;;;;;;5037301;28;20163;-58
2021/09/17 06:19:56;;;;;;;18.35;11.40;;;13.40;99.90;;;;;;5037786;28;20562;-57
2021/09/17 06:22:22;;;;;;;12.98;10.63;;;13.50;99.90;;;;;;5036493;28;20400;-56
2021/09/17 06:24:47;;;;;;;14.98;10.55;;;13.50;99.90;;;;;;5036140;28;20064;-59
2021/09/17 06:27:13;;;;;;;14.63;9.95;;;13.60;99.90;;;;;;5035721;28;20087;-58
2021/09/17 06:29:38;;;;;;;16.00;10.70;;;13.60;99.90;;;;;;5034164;28;20030;-59
2021/09/17 06:32:04;;;;;;;19.05;12.65;;;13.60;99.90;;;;;;5035849;28;20075;-58
2021/09/17 06:34:30;;;;;;;25.92;12.40;;;13.60;99.90;;;;;;5035414;28;20033;-58
2021/09/17 06:36:56;;;;;;;16.90;10.02;;;13.70;99.90;;;;;;5036380;28;20565;-58
2021/09/17 06:39:22;;;;;;;13.55;11.07;;;13.80;99.90;;;;;;5022147;28;20045;-58
2021/09/17 06:41:49;;;;;;;21.83;11.55;;;13.90;99.90;;;;;;5030802;28;20575;-59
2021/09/17 06:44:15;;;;;;;13.50;10.55;;;14.00;99.90;;;;;;5031719;28;20052;-56
2021/09/17 06:46:41;;;;;;;15.85;9.55;;;14.10;99.90;;;;;;5035449;28;20500;-58
2021/09/17 06:49:06;;;;;;;14.13;10.95;;;14.20;99.90;;;;;;5034934;28;20025;-59
2021/09/17 06:51:32;;;;;;;17.25;10.23;;;14.30;99.90;;;;;;5044113;28;20540;-59
2021/09/17 06:53:58;;;;;;;16.50;11.55;;;14.30;99.90;;;;;;5032813;28;20025;-58
2021/09/17 06:56:23;;;;;;;15.73;12.43;;;14.40;99.90;;;;;;5026429;28;20071;-58
2021/09/17 06:58:49;;;;;;;21.77;13.40;;;14.40;99.90;;;;;;5041891;28;20033;-56
2021/09/17 07:01:15;;;;;;;18.42;12.98;;;14.50;99.90;;;;;;5033814;28;20097;-58
2021/09/17 07:03:40;;;;;;;15.48;10.93;;;14.50;99.90;;;;;;5032119;28;20028;-58
2021/09/17 07:06:06;;;;;;;16.02;10.32;;;14.70;99.90;;;;;;5032898;28;20046;-59
2021/09/17 07:08:31;;;;;;;17.83;13.85;;;14.80;99.90;;;;;;5032027;28;20033;-58
2021/09/17 07:10:57;;;;;;;15.25;12.45;;;14.80;99.90;;;;;;5032027;28;20030;-59
2021/09/17 07:13:22;;;;;;;14.30;11.82;;;14.80;99.90;;;;;;5042564;28;20406;-58
2021/09/17 07:15:48;;;;;;;15.38;10.27;;;15.00;99.90;;;;;;5035132;28;20040;-56
2021/09/17 07:18:14;;;;;;;13.73;10.80;;;15.30;99.90;;;;;;5033979;28;20021;-56
2021/09/17 07:20:40;;;;;;;15.55;11.32;;;15.30;99.90;;;;;;5030993;28;20033;-58
2021/09/17 07:23:06;;;;;;;17.10;11.43;;;15.40;99.90;;;;;;5032149;28;20036;-58
2021/09/17 07:25:33;;;;;;;16.17;11.23;;;15.70;99.90;;;;;;5032987;28;20052;-59
2021/09/17 07:27:59;;;;;;;18.20;10.75;;;15.80;99.90;;;;;;5036344;28;20121;-57
2021/09/17 07:30:24;;;;;;;15.45;10.43;;;16.10;99.90;;;;;;5034712;28;20498;-59
2021/09/17 07:32:51;;;;;;;17.13;9.75;;;16.30;99.90;;;;;;5024254;28;20025;-59
2021/09/17 07:35:17;;;;;;;16.75;9.75;;;16.40;99.90;;;;;;5034639;28;20049;-57
2021/09/17 07:37:44;;;;;;;11.75;8.10;;;16.60;99.90;;;;;;5034978;28;20373;-58
2021/09/17 07:40:13;;;;;;;16.52;8.68;;;16.90;99.90;;;;;;5015864;28;20416;-59
2021/09/17 07:42:44;;;;;;;10.13;8.50;;;17.10;99.90;;;;;;5029340;28;20044;-59
2021/09/17 07:45:11;;;;;;;15.20;8.48;;;17.30;99.90;;;;;;5033947;28;20036;-58
2021/09/17 07:47:37;;;;;;;12.27;8.40;;;17.40;99.90;;;;;;5031689;28;20045;-56
2021/09/17 07:50:04;;;;;;;10.70;7.97;;;17.70;99.90;;;;;;5031125;28;20116;-59
2021/09/17 07:52:30;;;;;;;11.93;7.93;;;17.70;99.90;;;;;;5030985;28;20107;-58
2021/09/17 07:54:55;;;;;;;13.85;8.23;;;18.00;99.90;;;;;;5032139;28;20085;-58
2021/09/17 07:57:21;;;;;;;9.65;7.18;;;18.30;99.90;;;;;;5032484;28;20036;-60
2021/09/17 07:59:47;;;;;;;15.10;8.45;;;18.70;99.90;;;;;;5033407;28;20045;-58
2021/09/17 08:02:13;;;;;;;15.18;7.82;;;19.00;99.90;;;;;;5032371;28;20033;-60
2021/09/17 08:04:38;;;;;;;12.13;7.80;;;19.10;99.90;;;;;;5030595;28;20025;-59
2021/09/17 08:07:08;;;;;;;12.93;8.82;;;19.00;99.90;;;;;;5033350;28;20044;-59
2021/09/17 08:09:34;;;;;;;16.70;8.95;;;19.10;99.90;;;;;;5027966;28;20068;-58
2021/09/17 08:12:01;;;;;;;14.35;8.88;;;18.60;99.90;;;;;;5027766;28;20021;-58
2021/09/17 08:14:27;;;;;;;14.13;8.65;;;18.60;99.90;;;;;;5031445;28;20527;-56
2021/09/17 08:16:53;;;;;;;10.18;8.18;;;19.10;99.90;;;;;;5029270;28;20025;-58
2021/09/17 08:19:18;;;;;;;16.75;8.20;;;19.40;99.90;;;;;;5030264;28;20487;-58
2021/09/17 08:21:44;;;;;;;14.63;9.27;;;19.20;99.90;;;;;;5024758;28;20116;-58
2021/09/17 08:24:14;;;;;;;10.15;8.07;;;19.40;99.90;;;;;;5031186;28;20033;-60
2021/09/17 08:26:44;;;;;;;19.02;8.10;;;19.50;99.90;;;;;;5028238;28;20021;-59
2021/09/17 08:29:10;;;;;;;17.45;8.88;;;19.80;99.90;;;;;;5022625;28;20111;-59
2021/09/17 08:31:36;;;;;;;18.30;10.75;;;19.80;99.90;;;;;;5025159;28;20408;-59
2021/09/17 08:34:02;;;;;;;19.08;10.57;;;20.40;99.90;;;;;;5031930;28;20105;-60
2021/09/17 08:36:27;;;;;;;17.55;9.85;;;20.30;99.90;;;;;;5033936;28;20095;-58
2021/09/17 08:38:53;;;;;;;15.57;10.07;;;20.40;99.90;;;;;;5033920;28;20083;-58
2021/09/17 08:41:19;;;;;;;22.13;12.45;;;20.70;99.90;;;;;;5015849;28;20610;-58
2021/09/17 08:43:45;;;;;;;16.80;10.57;;;21.00;99.90;;;;;;5030458;28;20559;-58
2021/09/17 08:46:14;;;;;;;20.85;11.57;;;21.10;99.90;;;;;;5031619;28;20032;-58
2021/09/17 08:48:41;;;;;;;16.38;9.07;;;21.30;99.90;;;;;;5030535;28;20041;-59
2021/09/17 08:51:07;;;;;;;16.80;9.00;;;21.40;99.90;;;;;;5028887;28;20025;-57
2021/09/17 08:53:33;;;;;;;17.10;9.77;;;21.30;99.90;;;;;;5029099;28;20029;-59
2021/09/17 08:55:59;;;;;;;19.25;11.95;;;21.30;99.90;;;;;;5027241;28;20034;-60
2021/09/17 08:58:24;;;;;;;17.42;10.82;;;21.40;99.90;;;;;;5029419;28;20034;-60
2021/09/17 09:00:50;;;;;;;19.50;11.60;;;21.30;99.90;;;;;;5030701;28;20045;-59
2021/09/17 09:03:33;;;;;;;19.63;11.93;;;21.30;99.90;;;;;;5024372;28;20451;-60
2021/09/17 09:06:13;;;;;;;18.83;11.57;;;21.40;99.90;;;;;;5032230;28;20124;-59
2021/09/17 09:08:40;;;;;;;18.50;10.73;;;21.50;99.90;;;;;;5032993;28;20044;-58
2021/09/17 09:11:21;;;;;;;25.50;11.35;;;21.50;99.90;;;;;;5029466;28;20038;-56
2021/09/17 09:14:04;;;;;;;20.45;11.52;;;21.40;99.90;;;;;;5017135;28;20038;-56
2021/09/17 09:16:30;;;;;;;18.50;10.45;;;21.30;99.90;;;;;;5025164;28;20101;-59
2021/09/17 09:18:56;;;;;;;17.65;10.32;;;21.50;99.90;;;;;;5012855;28;20069;-60
2021/09/17 09:21:26;;;;;;;23.52;10.55;;;21.60;99.90;;;;;;5016202;28;20052;-59
2021/09/17 09:24:15;;;;;;;19.65;10.57;;;21.40;99.90;;;;;;5027287;28;20766;-60
2021/09/17 09:26:41;;;;;;;19.67;11.55;;;21.80;99.90;;;;;;5021133;28;20534;-57
2021/09/17 09:29:27;;;;;;;23.02;12.02;;;21.90;99.90;;;;;;5029077;28;20034;-59
2021/09/17 09:31:53;;;;;;;24.35;13.02;;;21.80;99.90;;;;;;5034335;28;20489;-60
2021/09/17 09:34:21;;;;;;;26.33;13.43;;;21.40;99.90;;;;;;5030300;28;20022;-59
2021/09/17 09:36:47;;;;;;;26.08;14.40;;;21.30;99.90;;;;;;5022292;28;20145;-60
2021/09/17 09:39:13;;;;;;;24.63;13.30;;;20.90;99.90;;;;;;5027718;28;20029;-60
2021/09/17 09:41:39;;;;;;;25.60;13.68;;;20.70;99.90;;;;;;5004854;28;20512;-56
2021/09/17 09:44:17;;;;;;;25.00;13.43;;;20.50;99.90;;;;;;5025937;28;20041;-58
2021/09/17 09:46:43;;;;;;;24.73;13.00;;;20.60;99.90;;;;;;5025223;28;20030;-58
2021/09/17 09:49:15;;;;;;;23.95;12.95;;;20.50;99.90;;;;;;5029018;28;20125;-59
2021/09/17 09:51:50;;;;;;;23.88;11.88;;;20.50;99.90;;;;;;5028432;28;20029;-58
2021/09/17 09:54:16;;;;;;;18.42;10.35;;;20.40;99.90;;;;;;5025099;28;20042;-60
2021/09/17 09:56:42;;;;;;;16.40;10.68;;;20.60;99.90;;;;;;5027912;28;20017;-59
2021/09/17 09:59:08;;;;;;;18.48;9.75;;;20.70;99.90;;;;;;5027990;28;20449;-60
2021/09/17 10:01:36;;;;;;;20.80;11.10;;;20.60;99.90;;;;;;5026122;28;20112;-59
2021/09/17 10:04:03;;;;;;;20.48;11.90;;;20.40;99.90;;;;;;5025712;28;20108;-58
2021/09/17 10:06:39;;;;;;;17.77;10.88;;;20.30;99.90;;;;;;5028105;28;20018;-57
2021/09/17 10:09:08;;;;;;;18.98;11.55;;;20.20;99.90;;;;;;5024459;28;20030;-56
2021/09/17 10:11:36;;;;;;;13.00;9.90;;;20.10;99.90;;;;;;5021620;28;20040;-57
2021/09/17 10:14:03;;;;;;;20.95;11.90;;;20.60;99.90;;;;;;5026984;28;20080;-59
2021/09/17 10:16:31;;;;;;;20.67;11.07;;;21.20;99.90;;;;;;5027640;28;20033;-58
2021/09/17 10:18:58;;;;;;;24.42;10.93;;;21.40;99.90;;;;;;5018459;28;20038;-58
2021/09/17 10:21:45;;;;;;;16.40;11.10;;;21.70;99.90;;;;;;5026311;28;20037;-59
2021/09/17 10:24:33;;;;;;;14.75;9.90;;;21.60;99.90;;;;;;5020035;28;20026;-56
2021/09/17 10:27:10;;;;;;;17.05;10.77;;;22.10;99.90;;;;;;5029971;28;20032;-59
2021/09/17 10:29:55;;;;;;;13.88;9.63;;;22.20;99.40;;;;;;5031550;28;20036;-57
2021/09/17 10:32:26;;;;;;;15.77;9.63;;;22.00;99.10;;;;;;5029032;28;20108;-59
2021/09/17 10:35:23;;;;;;;17.83;10.85;;;22.10;98.80;;;;;;5031477;28;20041;-58
2021/09/17 10:38:20;;;;;;;21.88;11.38;;;21.90;98.80;;;;;;5025105;28;20124;-59
2021/09/17 10:40:54;;;;;;;12.13;8.77;;;22.10;98.80;;;;;;5009887;28;20056;-60
2021/09/17 10:43:58;;;;;;;24.05;13.20;;;22.00;99.10;;;;;;5034134;28;20051;-55
2021/09/17 10:46:24;;;;;;;19.35;10.43;;;21.60;98.00;;;;;;5028112;28;20071;-59
2021/09/17 10:48:52;;;;;;;17.92;9.80;;;21.50;99.10;;;;;;5037578;28;20055;-60
2021/09/17 10:51:38;;;;;;;15.27;10.23;;;21.50;99.60;;;;;;5023964;28;20562;-59
2021/09/17 10:54:11;;;;;;;15.88;9.55;;;21.60;98.50;;;;;;5027109;28;20032;-58
2021/09/17 10:56:49;;;;;;;;;;;21.90;99.50;;;;;;5024435;28;20048;-55
2021/09/17 10:59:25;;;;;;;16.13;8.75;;;22.10;98.70;;;;;;5023206;28;19912;-59
2021/09/17 11:01:55;;;;;;;11.32;8.10;;;22.70;98.20;;;;;;5025792;28;20047;-59
2021/09/17 11:04:24;;;;;;;11.70;7.90;;;22.90;96.10;;;;;;5023774;28;20021;-59
2021/09/17 11:06:50;;;;;;;14.73;8.65;;;22.80;96.70;;;;;;5022582;28;20041;-58
2021/09/17 11:09:40;;;;;;;14.60;7.78;;;22.90;97.40;;;;;;5027959;28;20044;-59
2021/09/17 11:12:20;;;;;;;10.88;6.70;;;23.10;95.70;;;;;;5028168;28;20021;-59
2021/09/17 11:15:03;;;;;;;12.10;7.32;;;23.00;96.30;;;;;;5031072;28;20025;-59
2021/09/17 11:17:50;;;;;;;9.43;6.97;;;23.10;95.30;;;;;;5010826;28;20033;-60
2021/09/17 11:20:23;;;;;;;13.13;6.68;;;23.00;96.20;;;;;;5031497;28;20025;-59
2021/09/17 11:22:57;;;;;;;8.68;6.30;;;23.30;96.90;;;;;;5028409;28;20370;-60
2021/09/17 11:25:39;;;;;;;;;;;23.30;95.90;;;;;;5029036;28;20740;-60
2021/09/17 11:28:27;;;;;;;11.77;6.82;;;23.20;95.70;;;;;;5031005;28;19920;-58
2021/09/17 11:30:53;;;;;;;11.05;7.90;;;23.30;96.80;;;;;;5028208;28;20018;-59
2021/09/17 11:33:19;;;;;;;15.63;8.90;;;23.60;95.70;;;;;;5025131;28;20551;-60
2021/09/17 11:35:45;;;;;;;14.13;8.82;;;23.20;95.20;;;;;;5025971;28;20505;-58
2021/09/17 11:38:12;;;;;;;13.48;8.95;;;23.10;96.40;;;;;;5029646;28;20040;-59
2021/09/17 11:40:50;;;;;;;13.57;8.70;;;23.30;96.10;;;;;;5014190;28;20107;-57
2021/09/17 11:43:16;;;;;;;13.18;8.70;;;23.20;96.20;;;;;;5029245;28;20034;-59
2021/09/17 11:45:49;;;;;;;15.25;8.68;;;23.00;95.50;;;;;;5029942;28;20017;-59
2021/09/17 11:48:26;;;;;;;12.32;7.80;;;23.10;95.40;;;;;;5030111;28;20018;-59
2021/09/17 11:50:53;;;;;;;20.45;8.30;;;23.30;94.80;;;;;;5028206;28;20025;-59
2021/09/17 11:53:19;;;;;;;14.63;9.68;;;23.20;96.00;;;;;;5028182;28;20014;-57
2021/09/17 11:55:45;;;;;;;11.52;8.75;;;23.00;95.20;;;;;;5022884;28;20076;-59
2021/09/17 11:58:11;;;;;;;13.07;10.02;;;22.80;95.10;;;;;;5025470;28;20040;-59
2021/09/17 12:00:37;;;;;;;14.73;9.55;;;22.60;95.00;;;;;;5021621;28;20596;-55
2021/09/17 12:03:06;;;;;;;10.57;8.07;;;22.50;95.50;;;;;;5024229;28;20021;-59
2021/09/17 12:05:37;;;;;;;12.77;9.30;;;22.30;96.80;;;;;;5030349;28;20036;-58
2021/09/17 12:08:04;;;;;;;15.20;10.32;;;22.30;97.00;;;;;;5011781;28;20035;-58
2021/09/17 12:10:32;;;;;;;17.85;10.50;;;22.20;96.50;;;;;;5025912;28;20026;-59
2021/09/17 12:13:01;;;;;;;11.77;9.38;;;22.00;96.40;;;;;;5019587;28;20046;-56
2021/09/17 12:15:46;;;;;;;14.73;11.90;;;22.20;96.90;;;;;;5024253;28;20033;-58
2021/09/17 12:18:22;;;;;;;16.05;10.88;;;22.10;96.90;;;;;;5030927;28;20061;-58
2021/09/17 12:20:49;;;;;;;15.10;11.05;;;21.80;96.70;;;;;;5022449;28;20036;-60
2021/09/17 12:23:32;;;;;;;18.27;11.60;;;22.20;96.40;;;;;;5026883;28;20021;-59
2021/09/17 12:26:12;;;;;;;15.37;11.03;;;22.40;95.70;;;;;;5019478;28;20460;-55
2021/09/17 12:28:40;;;;;;;14.63;10.35;;;22.70;95.90;;;;;;5029990;28;20104;-53
2021/09/17 12:31:08;;;;;;;14.95;10.43;;;22.70;96.40;;;;;;5029636;28;20013;-59
2021/09/17 12:33:35;;;;;;;11.40;7.90;;;22.80;95.70;;;;;;5029378;28;20108;-59
2021/09/17 12:36:10;;;;;;;14.30;9.90;;;22.90;96.40;;;;;;5029250;28;20579;-60
2021/09/17 12:38:37;;;;;;;13.35;10.18;;;22.60;96.30;;;;;;5030323;28;20396;-57